Time;durP1;ratioP1;P1;durP2;ratioP2;P2;SDS_P1;SDS_P2;PMS_P1;PMS_P2;Temp;Humidity;BMP_temperature;BMP_pressure;BME280_temperature;BME280_humidity;BME280_pressure;Samples;Min_cycle;Max_cycle;Signal;HPM_P1;HPM_P2
2022/12/10 00:00:19;;;;;;;41.20;15.80;;;-1.50;99.90;;;;;;5093251;28;20082;-81
2022/12/10 00:02:45;;;;;;;37.73;15.60;;;-1.50;99.90;;;;;;5088691;28;20055;-81
2022/12/10 00:05:11;;;;;;;38.13;15.47;;;-1.50;99.90;;;;;;5056144;28;20036;-81
2022/12/10 00:07:36;;;;;;;44.03;16.20;;;-1.40;99.90;;;;;;5055820;28;20570;-81
2022/12/10 00:10:03;;;;;;;40.00;16.37;;;-1.40;99.90;;;;;;5055850;28;20040;-81
2022/12/10 00:12:29;;;;;;;43.90;16.73;;;-1.40;99.90;;;;;;5072685;28;20048;-81
2022/12/10 00:14:54;;;;;;;36.60;15.77;;;-1.40;99.90;;;;;;5056985;28;20480;-81
2022/12/10 00:17:20;;;;;;;38.17;16.63;;;-1.30;99.90;;;;;;5081995;28;20070;-80
2022/12/10 00:19:46;;;;;;;41.30;14.77;;;0.50;99.90;;;;;;5075745;28;20036;-81
2022/12/10 00:22:11;;;;;;;39.23;16.83;;;-1.30;99.90;;;;;;5075991;28;20047;-81
2022/12/10 00:24:37;;;;;;;43.37;16.93;;;-1.30;99.90;;;;;;5092442;28;20499;-81
2022/12/10 00:27:03;;;;;;;41.93;16.80;;;-1.30;99.90;;;;;;5075631;28;20044;-81
2022/12/10 00:29:29;;;;;;;40.17;16.20;;;-1.20;99.90;;;;;;5075660;28;20040;-81
2022/12/10 00:31:54;;;;;;;45.63;18.27;;;-1.20;99.90;;;;;;5091825;28;20040;-81
2022/12/10 00:34:20;;;;;;;38.87;16.43;;;-1.20;99.90;;;;;;5067123;28;20504;-81
2022/12/10 00:36:48;;;;;;;41.00;17.07;;;-1.20;99.90;;;;;;5072271;28;20048;-81
2022/12/10 00:39:19;;;;;;;43.53;16.73;;;-1.20;99.90;;;;;;5055450;28;20036;-81
2022/12/10 00:41:46;;;;;;;44.23;16.77;;;-1.10;99.90;;;;;;5072202;28;20047;-81
2022/12/10 00:44:12;;;;;;;36.57;15.83;;;-1.10;99.90;;;;;;5055432;28;20085;-81
2022/12/10 00:46:38;;;;;;;43.77;16.77;;;-1.10;99.90;;;;;;5055469;28;20047;-81
2022/12/10 00:49:04;;;;;;;42.00;17.10;;;-1.10;99.90;;;;;;5072410;28;20048;-81
2022/12/10 00:51:30;;;;;;;35.57;16.47;;;-1.00;99.90;;;;;;5081285;28;20403;-81
2022/12/10 00:53:58;;;;;;;42.63;16.43;;;-1.00;99.90;;;;;;5075272;28;20487;-81
2022/12/10 00:56:29;;;;;;;40.87;15.63;;;-1.00;99.90;;;;;;5056674;28;20033;-81
2022/12/10 00:58:56;;;;;;;38.17;16.50;;;-1.00;99.90;;;;;;5055243;28;20041;-81
2022/12/10 01:01:31;;;;;;;49.27;16.37;;;-0.90;99.90;;;;;;5055568;28;20036;-81
2022/12/10 01:04:05;;;;;;;43.53;17.03;;;-0.60;99.90;;;;;;5071994;28;20134;-81
2022/12/10 01:06:52;;;;;;;52.47;18.10;;;-0.90;99.90;;;;;;5072727;28;20044;-81
2022/12/10 01:09:22;;;;;;;46.33;17.60;;;-0.90;99.90;;;;;;5071464;28;20040;-81
2022/12/10 01:11:50;;;;;;;45.97;17.13;;;-0.90;99.90;;;;;;5071346;28;20044;-81
2022/12/10 01:14:25;;;;;;;47.20;18.23;;;-0.90;99.90;;;;;;5054714;28;20040;-81
2022/12/10 01:16:54;;;;;;;38.53;15.67;;;-0.90;99.90;;;;;;5078020;28;20032;-81
2022/12/10 01:19:20;;;;;;;47.30;17.70;;;-0.90;99.90;;;;;;5091607;28;20044;-81
2022/12/10 01:21:52;;;;;;;42.33;16.13;;;-0.90;99.90;;;;;;5091551;28;20042;-85
2022/12/10 01:24:19;;;;;;;39.93;15.73;;;-0.90;99.90;;;;;;5075005;28;20098;-85
2022/12/10 01:26:45;;;;;;;39.37;16.47;;;-0.80;99.90;;;;;;5054919;28;20259;-82
2022/12/10 01:29:11;;;;;;;45.63;15.97;;;-0.90;99.90;;;;;;5071332;28;20557;-85
2022/12/10 01:31:37;;;;;;;42.63;15.00;;;-0.80;99.90;;;;;;5071227;28;20044;-85
2022/12/10 01:34:05;;;;;;;41.17;17.37;;;-0.90;99.90;;;;;;5054107;28;20037;-85
2022/12/10 01:36:35;;;;;;;38.73;17.80;;;-0.90;99.90;;;;;;5043280;28;20047;-85
2022/12/10 01:39:03;;;;;;;38.17;15.53;;;-0.90;99.90;;;;;;5074693;28;20040;-85
2022/12/10 01:41:40;;;;;;;40.30;15.07;;;-0.60;99.90;;;;;;5074458;28;20506;-85
2022/12/10 01:44:09;;;;;;;50.50;18.67;;;-0.80;99.90;;;;;;5074552;28;20032;-85
2022/12/10 01:46:38;;;;;;;41.90;15.27;;;-0.80;99.90;;;;;;5054132;28;20055;-85
2022/12/10 01:49:07;;;;;;;42.10;14.67;;;-0.80;99.90;;;;;;5054580;28;20043;-85
2022/12/10 01:51:35;;;;;;;41.40;15.83;;;-0.80;99.90;;;;;;5047502;28;20048;-85
2022/12/10 01:54:04;;;;;;;47.43;17.30;;;-0.80;99.90;;;;;;5074652;28;20040;-85
2022/12/10 01:56:34;;;;;;;44.20;16.13;;;-0.80;99.90;;;;;;5056949;28;20036;-85
2022/12/10 01:59:00;;;;;;;46.77;17.97;;;-0.90;99.90;;;;;;5054458;28;20495;-85
2022/12/10 02:01:31;;;;;;;44.13;15.67;;;-0.90;99.90;;;;;;5037929;28;20052;-85
2022/12/10 02:04:09;;;;;;;41.23;15.50;;;-0.90;99.90;;;;;;5054018;28;20441;-85
2022/12/10 02:06:43;;;;;;;41.10;16.07;;;-1.00;99.90;;;;;;5054168;28;20037;-85
2022/12/10 02:09:30;;;;;;;43.70;16.53;;;-1.10;99.90;;;;;;5055131;28;20500;-85
2022/12/10 02:12:08;;;;;;;39.87;15.07;;;-1.20;99.90;;;;;;5074088;28;20067;-85
2022/12/10 02:14:46;;;;;;;41.40;16.50;;;-1.30;99.90;;;;;;5074126;28;20072;-85
2022/12/10 02:17:23;;;;;;;38.13;15.23;;;-1.40;99.90;;;;;;5074357;28;20391;-85
2022/12/10 02:20:24;;;;;;;39.03;14.90;;;-1.80;99.90;;;;;;5037454;28;20032;-85
2022/12/10 02:23:04;;;;;;;43.73;16.10;;;-1.60;99.90;;;;;;5054151;28;20041;-85
2022/12/10 02:25:44;;;;;;;35.97;15.30;;;-1.60;99.90;;;;;;5037674;28;20127;-85
2022/12/10 02:28:33;;;;;;;44.23;16.10;;;-1.60;99.90;;;;;;5054290;28;20051;-82
2022/12/10 02:31:00;;;;;;;35.63;15.63;;;-1.50;99.90;;;;;;5037349;28;20045;-82
2022/12/10 02:33:29;;;;;;;40.53;15.57;;;-1.30;99.90;;;;;;5037229;28;20045;-82
2022/12/10 02:35:57;;;;;;;33.10;14.77;;;-3.20;99.90;;;;;;5066756;28;20049;-82
2022/12/10 02:38:32;;;;;;;44.33;17.43;;;-1.50;99.90;;;;;;5071607;28;20044;-82
2022/12/10 02:41:08;;;;;;;42.08;16.85;;;-1.50;99.90;;;;;;5070779;28;20037;-82
2022/12/10 02:43:34;;;;;;;39.53;16.88;;;-1.60;99.90;;;;;;5070732;28;20079;-81
2022/12/10 02:46:03;;;;;;;41.07;16.03;;;-1.70;99.90;;;;;;5071521;28;20627;-81
2022/12/10 02:48:30;;;;;;;42.90;15.77;;;-1.80;99.90;;;;;;5070731;28;20041;-81
2022/12/10 02:50:56;;;;;;;34.73;13.40;;;-1.80;99.90;;;;;;5074002;28;20036;-81
2022/12/10 02:53:22;;;;;;;44.03;16.50;;;-1.90;99.90;;;;;;5073791;28;20102;-81
2022/12/10 02:56:12;;;;;;;43.43;15.73;;;-1.90;99.90;;;;;;5076954;28;20044;-81
2022/12/10 02:58:57;;;;;;;39.13;16.20;;;-2.00;99.90;;;;;;5094218;28;20047;-81
2022/12/10 03:01:58;;;;;;;43.90;15.77;;;-1.90;99.90;;;;;;5074051;28;20044;-81
2022/12/10 03:04:45;;;;;;;44.33;15.63;;;-1.90;99.90;;;;;;5040452;28;20044;-81
2022/12/10 03:07:18;;;;;;;41.23;15.90;;;-1.80;99.90;;;;;;5073821;28;20043;-81
2022/12/10 03:10:00;;;;;;;43.03;15.57;;;-0.30;99.90;;;;;;5075179;28;20131;-81
2022/12/10 03:12:35;;;;;;;43.23;15.67;;;-1.80;99.90;;;;;;5073787;28;20446;-81
2022/12/10 03:15:07;;;;;;;36.65;14.27;;;-1.70;99.90;;;;;;5056388;28;20047;-81
2022/12/10 03:17:34;;;;;;;45.20;16.60;;;-1.70;99.90;;;;;;5085070;28;20040;-81
2022/12/10 03:20:01;;;;;;;42.67;16.83;;;-1.70;99.90;;;;;;5092639;28;20495;-81
2022/12/10 03:22:28;;;;;;;44.07;16.57;;;-1.60;99.90;;;;;;5073719;28;20053;-81
2022/12/10 03:24:54;;;;;;;42.10;17.27;;;-1.50;99.90;;;;;;5073241;28;20463;-81
2022/12/10 03:27:23;;;;;;;42.53;16.83;;;-1.60;99.90;;;;;;5073429;28;20485;-81
2022/12/10 03:29:51;;;;;;;47.00;16.60;;;-1.50;99.90;;;;;;5056918;28;20101;-85
2022/12/10 03:32:19;;;;;;;46.27;17.20;;;-1.10;99.90;;;;;;5089992;28;20040;-85
2022/12/10 03:34:45;;;;;;;45.67;18.20;;;-1.50;99.90;;;;;;5093556;28;20059;-82
2022/12/10 03:37:12;;;;;;;43.40;16.90;;;-1.50;99.90;;;;;;5093748;28;20048;-81
2022/12/10 03:39:39;;;;;;;41.93;18.13;;;-1.10;99.90;;;;;;5076822;28;20036;-81
2022/12/10 03:42:06;;;;;;;54.93;19.67;;;-1.50;99.90;;;;;;5063973;28;20057;-81
2022/12/10 03:44:34;;;;;;;46.80;17.10;;;-1.70;99.90;;;;;;5056343;28;20097;-81
2022/12/10 03:47:00;;;;;;;45.40;18.80;;;-1.40;99.90;;;;;;5056598;28;20496;-81
2022/12/10 03:49:27;;;;;;;47.90;18.13;;;-1.50;99.90;;;;;;5056583;28;20040;-81
2022/12/10 03:51:52;;;;;;;44.33;17.47;;;-1.50;99.90;;;;;;5068370;28;20036;-81
2022/12/10 03:54:18;;;;;;;43.70;15.60;;;-1.50;99.90;;;;;;5076510;28;20052;-81
2022/12/10 03:56:44;;;;;;;53.97;17.80;;;-1.40;99.90;;;;;;5093007;28;20044;-81
2022/12/10 03:59:10;;;;;;;46.87;16.80;;;-1.40;99.90;;;;;;5076480;28;20039;-80
2022/12/10 04:01:36;;;;;;;44.57;16.90;;;-1.50;99.90;;;;;;5075450;28;20411;-80
2022/12/10 04:04:03;;;;;;;51.73;18.10;;;-1.50;99.90;;;;;;5075936;28;20437;-81
2022/12/10 04:06:29;;;;;;;39.50;16.70;;;-0.40;99.90;;;;;;5091856;28;20040;-81
2022/12/10 04:08:55;;;;;;;53.63;17.90;;;-1.70;99.90;;;;;;5059663;28;20047;-81
2022/12/10 04:11:20;;;;;;;37.83;14.50;;;-0.50;99.90;;;;;;5092615;28;20075;-81
2022/12/10 04:16:32;;;;;;;54.30;16.80;;;0.10;99.90;;;;;;5047084;28;20146;-81
2022/12/10 04:19:02;;;;;;;51.97;16.53;;;-1.40;99.90;;;;;;5093225;28;20391;-81
2022/12/10 04:27:03;;;;;;;58.50;17.40;;;-0.60;99.90;;;;;;5092499;28;20501;-85
2022/12/10 04:29:30;;;;;;;50.60;15.93;;;-1.30;99.90;;;;;;5092415;28;20040;-85
2022/12/10 04:31:56;;;;;;;41.17;15.40;;;-1.30;99.90;;;;;;5092579;28;20040;-85
2022/12/10 04:34:23;;;;;;;58.47;16.67;;;-1.20;99.90;;;;;;5074575;28;20060;-85
2022/12/10 04:36:50;;;;;;;43.60;15.30;;;-1.20;99.90;;;;;;5021787;28;20058;-85
2022/12/10 04:39:17;;;;;;;37.63;14.87;;;-1.20;99.90;;;;;;5055598;28;20048;-85
2022/12/10 04:41:44;;;;;;;45.43;15.30;;;-1.10;99.90;;;;;;5072304;28;20094;-82
2022/12/10 04:44:10;;;;;;;66.83;16.90;;;-1.10;99.90;;;;;;5072964;28;20123;-82
2022/12/10 04:46:36;;;;;;;63.03;15.93;;;-1.10;99.90;;;;;;5055382;28;20048;-82
2022/12/10 04:49:03;;;;;;;39.97;14.10;;;-1.10;99.90;;;;;;5064974;23;20504;-79
2022/12/10 04:51:29;;;;;;;40.13;15.53;;;-1.00;99.90;;;;;;5054983;28;20087;-81
2022/12/10 04:53:55;;;;;;;40.03;16.17;;;-1.00;99.90;;;;;;5054578;28;20076;-81
2022/12/10 04:56:21;;;;;;;37.87;14.10;;;-1.00;99.90;;;;;;5028942;28;20386;-79
2022/12/10 04:58:46;;;;;;;54.93;16.70;;;-1.00;99.90;;;;;;5035041;28;20040;-79
2022/12/10 05:01:12;;;;;;;36.53;15.13;;;-1.00;99.90;;;;;;5034962;28;20098;-79
2022/12/10 05:03:38;;;;;;;59.40;14.90;;;-1.00;99.90;;;;;;5035526;28;20058;-79
2022/12/10 05:06:09;;;;;;;43.27;14.13;;;-0.60;99.90;;;;;;5035489;28;20044;-80
2022/12/10 05:08:36;;;;;;;46.03;14.23;;;-0.90;99.90;;;;;;5018494;28;20045;-80
2022/12/10 05:11:05;;;;;;;43.40;15.57;;;-0.90;99.90;;;;;;5018501;28;20053;-80
2022/12/10 05:13:31;;;;;;;41.20;14.80;;;-0.90;99.90;;;;;;5034649;28;20037;-80
2022/12/10 05:15:57;;;;;;;93.20;17.03;;;-0.90;99.90;;;;;;5049760;28;20151;-80
2022/12/10 05:18:22;;;;;;;37.57;15.13;;;-0.80;99.90;;;;;;5054160;28;20048;-80
2022/12/10 05:20:48;;;;;;;48.93;15.30;;;-0.80;99.90;;;;;;5037994;28;20047;-80
2022/12/10 05:23:29;;;;;;;39.90;13.17;;;-0.80;99.90;;;;;;5054484;28;20044;-80
2022/12/10 05:26:22;;;;;;;36.97;13.73;;;-0.80;99.90;;;;;;5037781;28;20115;-80
2022/12/10 05:28:54;;;;;;;44.67;13.03;;;-0.80;99.90;;;;;;5037881;28;20060;-80
2022/12/10 05:31:26;;;;;;;36.57;14.17;;;-0.80;99.90;;;;;;5054532;28;20097;-79
2022/12/10 05:33:52;;;;;;;40.43;13.57;;;-0.80;99.90;;;;;;5054711;28;20388;-79
2022/12/10 05:36:21;;;;;;;42.53;13.57;;;-0.80;99.90;;;;;;5052687;28;20086;-79
2022/12/10 05:38:47;;;;;;;29.07;12.13;;;-0.70;99.90;;;;;;5038153;28;20486;-79
2022/12/10 05:41:31;;;;;;;37.03;11.90;;;-0.70;99.90;;;;;;5037758;28;20498;-79
2022/12/10 05:43:58;;;;;;;32.90;13.30;;;-0.70;99.90;;;;;;5037824;28;20041;-79
2022/12/10 05:46:28;;;;;;;47.90;14.87;;;-0.70;99.90;;;;;;5043734;28;20048;-80
2022/12/10 05:48:53;;;;;;;45.97;13.60;;;-0.70;99.90;;;;;;5033992;28;20083;-80
2022/12/10 05:51:22;;;;;;;55.63;15.33;;;-0.70;99.90;;;;;;5025842;28;20080;-80
2022/12/10 05:53:48;;;;;;;33.43;12.73;;;0.50;99.90;;;;;;5054067;28;20431;-81
2022/12/10 05:56:18;;;;;;;40.37;13.43;;;-0.60;99.90;;;;;;5053532;28;20035;-81
2022/12/10 05:58:45;;;;;;;36.57;12.73;;;-0.60;99.90;;;;;;5037637;28;20079;-81
2022/12/10 06:01:17;;;;;;;39.67;12.00;;;-0.60;99.90;;;;;;5037610;28;20143;-79
2022/12/10 06:03:43;;;;;;;30.13;12.07;;;-0.60;99.90;;;;;;5037899;28;20041;-84
2022/12/10 06:06:09;;;;;;;38.77;11.53;;;-0.50;99.90;;;;;;5034985;28;20049;-84
2022/12/10 06:08:36;;;;;;;45.70;13.47;;;-0.60;99.90;;;;;;5034197;28;20081;-84
2022/12/10 06:11:10;;;;;;;33.43;13.03;;;-0.10;99.90;;;;;;5034124;28;20543;-84
2022/12/10 06:13:36;;;;;;;52.43;13.17;;;-0.50;99.90;;;;;;5034202;28;20392;-84
2022/12/10 06:16:10;;;;;;;32.60;13.50;;;-0.50;99.90;;;;;;5017718;28;20049;-84
2022/12/10 06:18:37;;;;;;;29.90;12.87;;;0.00;99.90;;;;;;5019188;28;20073;-84
2022/12/10 06:21:04;;;;;;;24.83;9.97;;;-0.30;99.90;;;;;;5052017;28;20049;-79
2022/12/10 06:23:30;;;;;;;44.00;12.87;;;-0.50;99.90;;;;;;5034306;28;20033;-79
2022/12/10 06:25:55;;;;;;;27.33;10.93;;;-0.50;99.90;;;;;;5034271;28;20098;-84
2022/12/10 06:28:21;;;;;;;34.33;12.60;;;-0.20;99.90;;;;;;5010339;28;20103;-84
2022/12/10 06:30:47;;;;;;;60.47;12.67;;;-0.50;99.90;;;;;;5004153;28;20420;-84
2022/12/10 06:33:13;;;;;;;44.43;11.67;;;-0.50;99.90;;;;;;5021225;28;20037;-84
2022/12/10 06:35:38;;;;;;;32.83;10.43;;;-0.40;99.90;;;;;;5037650;28;20378;-84
2022/12/10 06:38:04;;;;;;;35.03;12.63;;;-0.40;99.90;;;;;;5008639;28;20481;-80
2022/12/10 06:40:30;;;;;;;34.27;10.90;;;-0.40;99.90;;;;;;5037519;28;20074;-80
2022/12/10 06:42:55;;;;;;;38.83;10.57;;;-0.40;99.90;;;;;;5021093;28;20125;-80
2022/12/10 06:45:21;;;;;;;34.53;10.47;;;-0.40;99.90;;;;;;5004696;28;20060;-80
2022/12/10 06:47:47;;;;;;;28.37;11.77;;;-0.40;99.90;;;;;;5039265;28;20048;-80
2022/12/10 06:50:12;;;;;;;41.07;12.37;;;-0.40;99.90;;;;;;5057062;28;20067;-80
2022/12/10 06:52:38;;;;;;;28.33;10.43;;;-0.40;99.90;;;;;;5040700;28;20089;-80
2022/12/10 06:55:04;;;;;;;24.70;11.27;;;-0.40;99.90;;;;;;5024077;28;20037;-80
2022/12/10 06:57:30;;;;;;;32.60;11.60;;;-0.40;99.90;;;;;;5040649;28;20036;-80
2022/12/10 06:59:55;;;;;;;34.00;11.07;;;-0.40;99.90;;;;;;5041044;28;20152;-80
2022/12/10 07:02:21;;;;;;;37.37;10.20;;;-0.40;99.90;;;;;;5037409;28;20041;-80
2022/12/10 07:04:47;;;;;;;34.60;10.97;;;-0.40;99.90;;;;;;5004532;28;20390;-80
2022/12/10 07:07:13;;;;;;;40.20;9.93;;;-0.50;99.90;;;;;;5037158;28;20378;-80
2022/12/10 07:09:39;;;;;;;29.87;9.83;;;-0.50;99.90;;;;;;5048220;28;20063;-79
2022/12/10 07:12:04;;;;;;;25.17;10.40;;;0.10;99.90;;;;;;5024189;28;20071;-79
2022/12/10 07:14:30;;;;;;;23.47;9.53;;;-0.60;99.90;;;;;;5057217;28;20033;-79
2022/12/10 07:16:56;;;;;;;22.37;9.30;;;-0.60;99.90;;;;;;5056935;28;20039;-79
2022/12/10 07:19:22;;;;;;;24.03;9.00;;;-0.60;99.90;;;;;;5056163;28;20095;-79
2022/12/10 07:21:48;;;;;;;26.93;10.83;;;-0.60;99.90;;;;;;5040776;28;20082;-79
2022/12/10 07:24:16;;;;;;;23.53;8.70;;;-0.60;99.90;;;;;;5057026;28;20373;-79
2022/12/10 07:26:44;;;;;;;36.23;9.17;;;-0.60;99.90;;;;;;5054393;28;20055;-79
2022/12/10 07:29:14;;;;;;;23.87;9.10;;;-0.60;99.90;;;;;;5039566;28;20040;-79
2022/12/10 07:31:40;;;;;;;31.83;9.17;;;-0.70;99.90;;;;;;5039849;28;20062;-80
2022/12/10 07:34:06;;;;;;;23.63;8.47;;;-0.70;99.90;;;;;;5056532;28;20119;-80
2022/12/10 07:36:31;;;;;;;23.43;8.80;;;-0.70;99.90;;;;;;5023192;28;20128;-80
2022/12/10 07:38:57;;;;;;;41.40;9.10;;;-0.70;99.90;;;;;;5039810;28;20051;-80
2022/12/10 07:41:24;;;;;;;25.03;10.00;;;-0.70;99.90;;;;;;5039105;28;20049;-80
2022/12/10 07:43:50;;;;;;;25.37;7.93;;;-0.60;99.90;;;;;;5056389;28;20435;-81
2022/12/10 07:46:22;;;;;;;24.17;9.10;;;-0.60;99.90;;;;;;5039813;28;20056;-81
2022/12/10 07:48:49;;;;;;;24.90;8.77;;;-0.70;99.90;;;;;;5039706;28;20048;-81
2022/12/10 07:51:16;;;;;;;31.20;9.07;;;-0.60;99.90;;;;;;5050189;28;20404;-81
2022/12/10 07:53:44;;;;;;;27.90;9.30;;;-0.60;99.90;;;;;;5056143;28;20044;-81
2022/12/10 07:56:13;;;;;;;32.00;9.10;;;-0.70;99.90;;;;;;5039414;28;20040;-82
2022/12/10 07:58:44;;;;;;;23.10;8.37;;;-0.60;99.90;;;;;;5056316;28;20465;-81
2022/12/10 08:01:14;;;;;;;21.00;8.27;;;-0.70;99.90;;;;;;5056283;28;20068;-84
2022/12/10 08:03:40;;;;;;;35.23;8.77;;;-0.60;99.90;;;;;;5039404;28;20040;-80
2022/12/10 08:06:09;;;;;;;23.03;7.97;;;-0.70;99.90;;;;;;5056228;28;20079;-80
2022/12/10 08:08:36;;;;;;;23.67;8.07;;;-0.70;99.90;;;;;;5055916;28;20399;-80
2022/12/10 08:11:04;;;;;;;29.03;9.10;;;-0.70;99.90;;;;;;5055969;28;20463;-80
2022/12/10 08:13:30;;;;;;;19.97;8.03;;;-0.60;99.90;;;;;;5055815;28;20406;-84
2022/12/10 08:16:05;;;;;;;28.27;9.00;;;-0.60;99.90;;;;;;5039089;28;20506;-84
2022/12/10 08:18:31;;;;;;;33.30;9.97;;;-0.60;99.90;;;;;;5055706;28;20044;-84
2022/12/10 08:20:57;;;;;;;28.93;8.93;;;-0.70;99.90;;;;;;5039247;28;20153;-84
2022/12/10 08:23:23;;;;;;;32.60;8.83;;;-0.50;99.90;;;;;;5055627;28;20484;-84
2022/12/10 08:25:49;;;;;;;35.83;8.77;;;-0.70;99.90;;;;;;5055483;28;20044;-85
2022/12/10 08:28:15;;;;;;;31.23;8.37;;;-0.70;99.90;;;;;;5039136;28;20041;-84
2022/12/10 08:30:46;;;;;;;28.23;9.33;;;-0.70;99.90;;;;;;5039217;28;20048;-84
2022/12/10 08:33:12;;;;;;;23.77;8.57;;;-0.70;99.90;;;;;;5055429;28;20049;-80
2022/12/10 08:35:37;;;;;;;20.40;8.23;;;-0.70;99.90;;;;;;5055331;28;20105;-80
2022/12/10 08:38:03;;;;;;;35.03;9.67;;;-0.70;99.90;;;;;;5055241;28;20040;-80
2022/12/10 08:40:29;;;;;;;43.37;9.77;;;-0.70;99.90;;;;;;5055253;28;20492;-80
2022/12/10 08:42:55;;;;;;;26.83;7.73;;;-0.70;99.90;;;;;;5055428;28;20084;-80
2022/12/10 08:45:20;;;;;;;24.57;8.60;;;-0.70;99.90;;;;;;5038599;28;20512;-80
2022/12/10 08:47:46;;;;;;;23.30;9.17;;;-0.60;99.90;;;;;;5038532;28;20442;-80
2022/12/10 08:50:12;;;;;;;32.90;9.87;;;0.90;99.90;;;;;;5055332;28;20065;-84
2022/12/10 08:52:37;;;;;;;21.47;7.90;;;0.70;99.90;;;;;;5021297;28;20094;-84
2022/12/10 08:55:04;;;;;;;28.03;8.33;;;-0.70;99.90;;;;;;5038531;28;20032;-84
2022/12/10 08:57:29;;;;;;;21.77;8.50;;;-0.50;99.90;;;;;;5038619;28;20404;-84
2022/12/10 08:59:55;;;;;;;27.87;8.43;;;-0.70;99.90;;;;;;5055228;28;20040;-84
2022/12/10 09:02:21;;;;;;;19.77;8.17;;;-0.70;99.90;;;;;;5038279;28;20051;-84
2022/12/10 09:04:49;;;;;;;23.23;9.03;;;-0.60;99.90;;;;;;5054815;28;20052;-84
2022/12/10 09:07:15;;;;;;;22.07;8.73;;;-0.60;99.90;;;;;;5055044;28;20499;-82
2022/12/10 09:09:40;;;;;;;27.90;8.30;;;-0.70;99.90;;;;;;5055081;28;20090;-81
2022/12/10 09:12:06;;;;;;;31.73;8.97;;;-0.70;99.90;;;;;;5038065;28;20541;-81
2022/12/10 09:14:32;;;;;;;26.37;9.67;;;-0.70;99.90;;;;;;5055103;28;20385;-81
2022/12/10 09:16:57;;;;;;;20.90;8.23;;;-0.70;99.90;;;;;;5038008;28;20396;-81
2022/12/10 09:19:23;;;;;;;25.67;8.63;;;-0.70;99.90;;;;;;5021912;28;20032;-81
2022/12/10 09:21:49;;;;;;;21.97;8.13;;;-0.70;99.90;;;;;;5021721;28;20152;-81
2022/12/10 09:24:14;;;;;;;21.80;8.50;;;-0.60;99.90;;;;;;5038140;28;20075;-84
2022/12/10 09:26:40;;;;;;;27.87;9.67;;;-0.70;99.90;;;;;;5037938;28;20094;-85
2022/12/10 09:29:06;;;;;;;21.93;9.27;;;-0.60;99.90;;;;;;5038051;28;20044;-84
2022/12/10 09:31:31;;;;;;;21.43;7.17;;;-0.70;99.90;;;;;;5054441;28;20052;-84
2022/12/10 09:33:57;;;;;;;21.83;7.80;;;-0.60;99.90;;;;;;5037846;28;20076;-84
2022/12/10 09:36:23;;;;;;;37.07;9.47;;;-0.60;99.90;;;;;;5054376;28;20067;-84
2022/12/10 09:38:51;;;;;;;27.50;8.53;;;-0.60;99.90;;;;;;5038025;28;20033;-84
2022/12/10 09:41:36;;;;;;;21.63;8.93;;;-0.70;99.90;;;;;;5054466;28;20041;-79
2022/12/10 09:44:23;;;;;;;28.90;8.57;;;-0.60;99.90;;;;;;5054203;28;20041;-79
2022/12/10 09:46:52;;;;;;;18.83;7.83;;;-0.60;99.90;;;;;;5037680;28;20080;-83
2022/12/10 09:49:23;;;;;;;29.37;8.77;;;-0.60;99.90;;;;;;5054171;28;20060;-85
2022/12/10 09:51:53;;;;;;;23.13;9.93;;;-0.60;99.90;;;;;;5037650;28;20048;-84
2022/12/10 09:54:27;;;;;;;23.73;9.40;;;-0.60;99.90;;;;;;5054206;28;20044;-85
2022/12/10 09:56:55;;;;;;;26.97;9.87;;;-2.50;99.90;;;;;;5054535;28;20036;-81
2022/12/10 09:59:27;;;;;;;20.10;8.37;;;-0.60;99.90;;;;;;5054119;28;20047;-84
2022/12/10 10:02:22;;;;;;;29.10;9.87;;;-0.60;99.90;;;;;;5038038;28;20121;-81
2022/12/10 10:04:59;;;;;;;27.00;10.20;;;-0.60;99.90;;;;;;5040632;28;20507;-80
2022/12/10 10:07:29;;;;;;;35.60;9.87;;;-0.60;99.90;;;;;;5042241;28;20090;-81
2022/12/10 10:09:59;;;;;;;25.13;8.70;;;-0.60;99.90;;;;;;5058518;28;20109;-83
2022/12/10 10:12:30;;;;;;;25.80;8.20;;;-0.60;99.90;;;;;;5058140;28;20083;-83
2022/12/10 10:14:56;;;;;;;25.63;8.80;;;-0.50;99.90;;;;;;5058101;28;20090;-81
2022/12/10 10:17:36;;;;;;;36.97;8.70;;;-0.50;99.90;;;;;;5057862;28;20049;-82
2022/12/10 10:20:03;;;;;;;30.57;9.63;;;-0.40;99.90;;;;;;5057880;28;20044;-82
2022/12/10 10:22:29;;;;;;;32.00;9.87;;;1.40;99.90;;;;;;5041264;28;20036;-82
2022/12/10 10:24:56;;;;;;;28.73;10.77;;;0.70;99.90;;;;;;5041445;28;20476;-82
2022/12/10 10:27:26;;;;;;;22.10;9.27;;;0.00;99.90;;;;;;5058691;28;20648;-87
2022/12/10 10:29:54;;;;;;;26.70;8.33;;;0.20;99.90;;;;;;5058068;28;20048;-84
2022/12/10 10:32:49;;;;;;;24.67;8.33;;;-0.40;99.90;;;;;;5057939;28;20392;-83
2022/12/10 10:35:33;;;;;;;35.03;8.93;;;-0.40;99.90;;;;;;5032436;28;20044;-84
2022/12/10 10:38:07;;;;;;;30.13;9.13;;;-0.40;99.90;;;;;;5057621;28;20124;-84
2022/12/10 10:40:43;;;;;;;25.07;7.30;;;-0.40;99.90;;;;;;5057888;28;20369;-83
2022/12/10 10:43:25;;;;;;;22.50;8.93;;;-0.40;99.90;;;;;;5057776;28;20048;-84
2022/12/10 10:46:13;;;;;;;27.83;7.63;;;-0.50;99.90;;;;;;5057508;28;20369;-84
2022/12/10 10:48:39;;;;;;;28.10;8.50;;;-0.50;99.90;;;;;;5057561;28;20051;-88
2022/12/10 10:51:26;;;;;;;19.87;7.40;;;-0.50;99.90;;;;;;5040562;28;20044;-82
2022/12/10 10:53:56;;;;;;;20.60;7.83;;;-0.60;99.90;;;;;;5040084;28;20092;-82
2022/12/10 10:56:42;;;;;;;20.00;7.57;;;-0.60;99.90;;;;;;5057206;28;20492;-82
2022/12/10 10:59:15;;;;;;;20.67;9.30;;;-0.60;99.90;;;;;;5057427;28;20492;-82
2022/12/10 11:01:57;;;;;;;22.83;8.47;;;-0.60;99.90;;;;;;5040601;28;20485;-82
2022/12/10 11:04:37;;;;;;;22.53;8.53;;;-0.50;99.90;;;;;;5057177;28;20045;-82
2022/12/10 11:07:05;;;;;;;20.97;9.57;;;-0.50;99.90;;;;;;5040466;28;20041;-81
2022/12/10 11:09:36;;;;;;;26.90;8.07;;;-0.50;99.90;;;;;;5057321;28;20037;-82
2022/12/10 11:12:20;;;;;;;18.23;7.37;;;-0.50;99.90;;;;;;5040505;28;20040;-81
2022/12/10 11:14:46;;;;;;;24.27;8.37;;;-0.50;99.90;;;;;;5056684;28;20048;-82
2022/12/10 11:17:15;;;;;;;26.10;9.57;;;-0.50;99.90;;;;;;5056621;28;20037;-88
2022/12/10 11:19:55;;;;;;;25.33;8.60;;;-0.40;99.90;;;;;;5040524;28;20051;-85
2022/12/10 11:22:27;;;;;;;22.27;8.33;;;0.80;99.90;;;;;;5056723;28;20491;-84
2022/12/10 11:24:56;;;;;;;24.40;8.07;;;-0.40;99.90;;;;;;5056828;28;20051;-84
2022/12/10 11:27:31;;;;;;;21.17;8.37;;;-0.50;99.90;;;;;;5040066;28;20522;-84
2022/12/10 11:30:11;;;;;;;25.67;9.30;;;-0.50;99.90;;;;;;5056574;28;20530;-84
2022/12/10 11:33:00;;;;;;;21.20;9.20;;;-0.50;99.90;;;;;;5039924;28;20048;-84
2022/12/10 11:35:35;;;;;;;18.70;7.83;;;-0.40;99.90;;;;;;5057067;28;20049;-84
2022/12/10 11:38:21;;;;;;;26.73;9.70;;;-0.40;99.90;;;;;;5052027;28;20032;-87
2022/12/10 11:40:49;;;;;;;;;;;-0.40;99.90;;;;;;5055646;28;20070;-86
2022/12/10 11:43:24;;;;;;;22.57;9.10;;;-0.40;99.90;;;;;;5054529;28;19920;-87
2022/12/10 11:46:20;;;;;;;24.60;8.73;;;-0.40;99.90;;;;;;5073776;28;20507;-87
2022/12/10 11:49:02;;;;;;;27.70;8.87;;;-0.40;99.90;;;;;;5074607;28;20174;-87
2022/12/10 11:51:39;;;;;;;27.33;9.87;;;-0.40;99.90;;;;;;5057779;28;20063;-86
2022/12/10 11:54:46;;;;;;;21.67;8.83;;;1.80;99.90;;;;;;5045560;28;20048;-82
2022/12/10 11:57:18;;;;;;;;;;;-0.40;99.90;;;;;;5039886;28;20044;-82
2022/12/10 11:59:54;;;;;;;30.60;9.43;;;-0.40;99.90;;;;;;5056103;28;19916;-82
2022/12/10 12:02:39;;;;;;;28.15;9.63;;;-0.40;99.90;;;;;;5039753;28;20499;-82
2022/12/10 12:05:19;;;;;;;23.17;9.03;;;1.10;99.90;;;;;;5039444;28;20047;-82
2022/12/10 12:07:48;;;;;;;24.67;9.27;;;-0.30;99.90;;;;;;5055913;28;20076;-82
2022/12/10 12:10:13;;;;;;;24.50;8.83;;;-0.60;99.90;;;;;;5039427;28;20111;-81
2022/12/10 12:12:50;;;;;;;25.07;8.90;;;-0.30;99.90;;;;;;5039137;28;20642;-82
2022/12/10 12:15:24;;;;;;;25.30;9.63;;;-0.20;99.90;;;;;;5056070;28;20048;-82
2022/12/10 12:17:59;;;;;;;26.13;9.30;;;-0.20;99.90;;;;;;5055836;28;20393;-82
2022/12/10 12:20:37;;;;;;;24.80;9.43;;;-0.20;99.90;;;;;;5055712;28;20047;-82
2022/12/10 12:23:24;;;;;;;25.37;9.80;;;1.20;99.90;;;;;;5055890;28;20048;-82
2022/12/10 12:26:03;;;;;;;25.50;9.97;;;-0.20;99.90;;;;;;5055409;28;20047;-82
2022/12/10 12:28:47;;;;;;;25.80;9.80;;;-0.10;99.90;;;;;;5054405;28;20098;-82
2022/12/10 12:31:21;;;;;;;28.70;9.43;;;-0.20;99.90;;;;;;5055415;28;20048;-82
2022/12/10 12:34:02;;;;;;;27.20;10.97;;;-0.20;99.90;;;;;;5055291;28;20041;-82
2022/12/10 12:36:34;;;;;;;24.27;9.87;;;-0.20;99.90;;;;;;5055465;28;20044;-82
2022/12/10 12:39:14;;;;;;;22.30;9.30;;;-0.20;99.90;;;;;;5055598;28;20041;-82
2022/12/10 12:42:27;;;;;;;26.13;10.57;;;-0.20;99.90;;;;;;5055289;28;20425;-82
2022/12/10 12:45:02;;;;;;;26.43;10.43;;;-0.20;99.90;;;;;;5038057;28;20483;-88
2022/12/10 12:48:14;;;;;;;24.42;9.75;;;-0.20;99.90;;;;;;5055444;28;20048;-88
2022/12/10 12:50:42;;;;;;;28.90;10.73;;;-0.10;99.90;;;;;;5028590;28;20052;-88
2022/12/10 12:53:15;;;;;;;24.00;10.30;;;-0.10;99.90;;;;;;5038412;28;20048;-88
2022/12/10 12:55:56;;;;;;;22.83;9.40;;;-0.10;99.90;;;;;;5055046;28;20484;-88
2022/12/10 12:58:44;;;;;;;27.63;10.40;;;-0.10;99.90;;;;;;5151561;27;20121;-86